Clacton-on-Sea, United Kingdom
Current Conditions -  °F | °C
As of 7:50 PM on Wednesday 17 Dec 2014 (Local Time) from EGUW Reporting Station
Broken Clouds Broken Clouds  
Wind Chill: 50°   Ceiling: 1400
Heat Index: 50°   Visibility: 6mi
Dew Point: 48°   Wind: 13mph
Humidity: 94%   Direction: 240°WSW
Pressure: 29.74"   Gusts: NA
Location:  51.79°N, 1.16°E
Report Text: EGUW 171950Z 24011KT 9999 BKN014 BKN080 10/09 Q1007 GRN NOSIG
Loading
Personal Weather Stations






























Interactive Weather Map New forecast layout! Learn more

10-Day Weather Forecast

Advertisements
Track Severe Weather on mobile